createdAt,value
2018-07-15T00:02:16.128Z,17.50
2018-07-15T00:04:46.541Z,17.40
2018-07-15T00:07:15.518Z,17.40
2018-07-15T00:09:44.470Z,17.30
2018-07-15T00:12:13.446Z,17.20
2018-07-15T00:14:42.424Z,17.10
2018-07-15T00:17:11.383Z,17.10
2018-07-15T00:19:40.325Z,17.20
2018-07-15T00:22:09.303Z,17.20
2018-07-15T00:24:38.253Z,17.10
2018-07-15T00:27:07.759Z,17.00
2018-07-15T00:29:36.719Z,17.00
2018-07-15T00:32:05.820Z,16.90
2018-07-15T00:34:34.782Z,16.90
2018-07-15T00:37:03.997Z,17.00
2018-07-15T00:39:32.978Z,16.90
2018-07-15T00:42:01.941Z,16.90
2018-07-15T00:44:31.337Z,16.80
2018-07-15T00:47:00.332Z,16.70
2018-07-15T00:49:29.298Z,16.60
2018-07-15T00:51:59.673Z,16.70
2018-07-15T00:54:28.643Z,16.60
2018-07-15T00:56:57.622Z,16.70
2018-07-15T00:59:26.577Z,16.70
2018-07-15T01:01:55.616Z,16.60
2018-07-15T01:04:24.608Z,16.50
2018-07-15T01:06:53.595Z,16.50
2018-07-15T01:09:22.609Z,16.50
2018-07-15T01:11:52.287Z,16.40
2018-07-15T01:14:21.729Z,16.50
2018-07-15T01:16:50.734Z,16.40
2018-07-15T01:19:19.686Z,16.30
2018-07-15T01:21:49.514Z,16.30
2018-07-15T01:24:18.476Z,16.40
2018-07-15T01:26:47.438Z,16.30
2018-07-15T01:29:16.428Z,16.10
2018-07-15T01:31:45.392Z,16.00
2018-07-15T01:34:14.375Z,16.00
2018-07-15T01:36:43.443Z,15.90
2018-07-15T01:39:12.405Z,15.90
2018-07-15T01:41:41.418Z,15.80
2018-07-15T01:44:10.368Z,15.80
2018-07-15T01:46:39.346Z,15.80
2018-07-15T01:49:08.394Z,15.90
2018-07-15T01:51:37.369Z,16.00
2018-07-15T01:54:06.404Z,16.00
2018-07-15T01:56:35.356Z,15.90
2018-07-15T01:59:04.325Z,15.80
2018-07-15T02:01:33.315Z,15.70
2018-07-15T02:04:02.278Z,15.60
2018-07-15T02:06:33.837Z,15.50
2018-07-15T02:09:02.851Z,15.50
2018-07-15T02:14:01.891Z,15.50
2018-07-15T02:16:32.019Z,15.50
2018-07-15T02:19:04.628Z,15.50
2018-07-15T02:21:33.670Z,15.30
2018-07-15T02:24:02.657Z,15.30
2018-07-15T02:26:31.605Z,15.30
2018-07-15T02:29:00.570Z,15.40
2018-07-15T02:31:29.518Z,15.20
2018-07-15T02:33:58.493Z,15.10
2018-07-15T02:36:27.475Z,15.20
2018-07-15T02:38:56.444Z,15.10
2018-07-15T02:41:25.407Z,15.10
2018-07-15T02:43:54.371Z,15.10
2018-07-15T02:46:23.318Z,15.10
2018-07-15T02:48:52.277Z,14.90
2018-07-15T02:51:21.229Z,14.80
2018-07-15T02:53:55.088Z,14.80
2018-07-15T02:56:25.077Z,14.80
2018-07-15T02:58:54.057Z,14.80
2018-07-15T03:01:23.019Z,14.70
2018-07-15T03:06:20.690Z,14.60
2018-07-15T03:11:18.267Z,14.70
2018-07-15T03:13:47.270Z,14.70
2018-07-15T03:16:17.369Z,14.70
2018-07-15T03:18:47.017Z,14.70
2018-07-15T03:21:15.991Z,14.70
2018-07-15T03:23:44.954Z,14.70
2018-07-15T03:26:13.903Z,14.70
2018-07-15T03:28:42.887Z,14.70
2018-07-15T03:31:11.865Z,14.70
2018-07-15T03:33:41.412Z,14.60
2018-07-15T03:36:10.390Z,14.60
2018-07-15T03:38:39.397Z,14.50
2018-07-15T03:41:08.386Z,14.50
2018-07-15T03:43:40.036Z,14.50
2018-07-15T03:46:09.816Z,14.50
2018-07-15T03:51:07.431Z,14.50
2018-07-15T03:53:36.442Z,14.50
2018-07-15T03:56:06.072Z,14.50
2018-07-15T03:58:35.071Z,14.50
2018-07-15T04:01:07.796Z,14.50
2018-07-15T04:03:36.788Z,14.60
2018-07-15T04:06:05.767Z,14.70
2018-07-15T04:08:34.787Z,14.80
2018-07-15T04:11:03.909Z,14.70
2018-07-15T04:13:32.918Z,14.80
2018-07-15T04:16:01.915Z,14.90
2018-07-15T04:18:30.901Z,14.80
2018-07-15T04:20:59.872Z,15.00
2018-07-15T04:23:28.872Z,15.10
2018-07-15T04:25:57.827Z,15.10
2018-07-15T04:28:26.896Z,15.30
2018-07-15T04:30:55.976Z,15.40
2018-07-15T04:33:24.985Z,15.50
2018-07-15T04:35:53.948Z,15.60
2018-07-15T04:38:22.959Z,15.70
2018-07-15T04:40:51.933Z,15.80
2018-07-15T04:43:20.959Z,15.90
2018-07-15T04:45:49.942Z,15.90
2018-07-15T04:48:18.932Z,16.00
2018-07-15T04:50:48.309Z,16.10
2018-07-15T04:53:19.739Z,16.10
2018-07-15T04:55:48.795Z,16.20
2018-07-15T04:58:18.285Z,16.20
2018-07-15T05:00:47.246Z,16.30
2018-07-15T05:03:16.216Z,16.40
2018-07-15T05:05:45.838Z,16.60
2018-07-15T05:08:14.828Z,16.60
2018-07-15T05:10:43.848Z,16.70
2018-07-15T05:13:12.823Z,16.80
2018-07-15T05:15:41.855Z,16.80
2018-07-15T05:18:11.864Z,16.90
2018-07-15T05:20:40.896Z,17.00
2018-07-15T05:23:09.907Z,17.10
2018-07-15T05:25:38.912Z,17.10
2018-07-15T05:28:08.699Z,17.20
2018-07-15T05:30:37.691Z,17.20
2018-07-15T05:33:07.208Z,17.30
2018-07-15T05:35:36.698Z,17.50
2018-07-15T05:38:06.856Z,17.70
2018-07-15T05:40:35.879Z,17.80
2018-07-15T05:43:04.885Z,17.80
2018-07-15T05:45:33.948Z,17.90
2018-07-15T05:48:03.322Z,18.10
2018-07-15T05:50:33.382Z,18.30
2018-07-15T05:53:02.401Z,18.50
2018-07-15T05:55:31.475Z,18.60
2018-07-15T05:58:00.530Z,18.70
2018-07-15T06:00:29.455Z,18.80
2018-07-15T06:03:00.623Z,18.90
2018-07-15T06:05:30.299Z,19.00
2018-07-15T06:07:59.431Z,18.90
2018-07-15T06:10:28.475Z,18.90
2018-07-15T06:12:57.907Z,19.00
2018-07-15T06:15:26.941Z,19.00
2018-07-15T06:17:55.890Z,19.10
2018-07-15T06:20:25.443Z,19.30
2018-07-15T06:22:54.456Z,19.20
2018-07-15T06:25:23.491Z,19.10
2018-07-15T06:27:54.237Z,19.10
2018-07-15T06:30:23.222Z,19.40
2018-07-15T06:32:52.187Z,19.60
2018-07-15T06:35:21.939Z,19.80
2018-07-15T06:37:50.920Z,19.90
2018-07-15T06:40:19.921Z,20.00
2018-07-15T06:42:48.964Z,20.10
2018-07-15T06:45:17.956Z,20.30
2018-07-15T06:47:46.930Z,20.40
2018-07-15T06:50:16.553Z,20.40
2018-07-15T06:52:45.587Z,20.30
2018-07-15T06:55:14.606Z,20.40
2018-07-15T06:57:43.609Z,20.40
2018-07-15T07:00:12.648Z,20.60
2018-07-15T07:02:41.698Z,20.70
2018-07-15T07:05:12.675Z,20.80
2018-07-15T07:07:43.302Z,20.90
2018-07-15T07:10:12.950Z,21.10
2018-07-15T07:12:42.970Z,21.10
2018-07-15T07:15:12.052Z,21.20
2018-07-15T07:17:41.456Z,21.20
2018-07-15T07:20:10.447Z,21.20
2018-07-15T07:22:39.488Z,21.30
2018-07-15T07:25:08.507Z,21.30
2018-07-15T07:27:39.091Z,21.40
2018-07-15T07:30:08.123Z,21.70
2018-07-15T07:32:37.498Z,21.70
2018-07-15T07:35:06.594Z,21.80
2018-07-15T07:37:35.639Z,21.60
2018-07-15T07:40:04.856Z,21.70
2018-07-15T07:42:33.859Z,21.90
2018-07-15T07:45:03.328Z,22.10
2018-07-15T07:47:34.108Z,22.70
2018-07-15T07:50:12.638Z,23.30
2018-07-15T07:52:51.070Z,24.20
2018-07-15T07:55:20.998Z,25.50
2018-07-15T07:57:55.461Z,27.70
2018-07-15T08:02:54.911Z,31.80
2018-07-15T08:10:21.549Z,37.20
2018-07-15T08:12:50.742Z,37.50
2018-07-15T08:15:19.919Z,38.10
2018-07-15T08:17:49.625Z,39.80
2018-07-15T08:20:27.145Z,40.60
2018-07-15T08:22:58.413Z,41.10
2018-07-15T08:25:37.177Z,40.10
2018-07-15T08:28:07.884Z,39.00
2018-07-15T08:30:48.440Z,38.90
2018-07-15T08:33:19.343Z,39.20
2018-07-15T08:53:34.928Z,30.40
2018-07-15T08:56:04.806Z,30.10
2018-07-15T08:58:34.056Z,29.80
2018-07-15T09:01:03.264Z,29.30
2018-07-15T09:03:33.161Z,29.40
2018-07-15T09:06:02.321Z,29.50
2018-07-15T09:08:31.444Z,28.70
2018-07-15T09:11:07.735Z,28.20
2018-07-15T09:13:41.209Z,27.80
2018-07-15T09:16:10.675Z,27.60
2018-07-15T09:18:40.680Z,27.20
2018-07-15T09:21:09.802Z,27.00
2018-07-15T09:26:09.161Z,28.10
2018-07-15T09:28:38.345Z,27.60
2018-07-15T09:31:07.485Z,27.40
2018-07-15T09:33:37.124Z,27.30
2018-07-15T09:36:06.257Z,27.00
2018-07-15T09:38:35.441Z,27.50
2018-07-15T10:50:38.344Z,29.90
2018-07-15T10:53:07.376Z,29.80
2018-07-15T10:55:36.878Z,28.60
2018-07-15T10:58:05.941Z,28.10
2018-07-15T11:00:35.816Z,27.70
2018-07-15T11:03:06.062Z,27.40
2018-07-15T11:05:35.222Z,26.70
2018-07-15T11:08:04.286Z,26.70
2018-07-15T11:10:34.684Z,26.50
2018-07-15T11:13:05.217Z,26.20
2018-07-15T11:15:34.300Z,26.10
2018-07-15T11:18:05.699Z,26.00
2018-07-15T11:20:36.426Z,26.00
2018-07-15T11:23:05.926Z,25.90
2018-07-15T11:25:35.377Z,25.90
2018-07-15T11:28:04.359Z,25.90
2018-07-15T11:30:33.375Z,25.90
2018-07-15T11:33:02.351Z,25.90
2018-07-15T11:35:31.363Z,25.90
2018-07-15T11:38:01.929Z,25.80
2018-07-15T11:40:30.934Z,25.90
2018-07-15T11:42:59.960Z,25.90
2018-07-15T11:45:29.842Z,25.90
2018-07-15T11:47:58.855Z,25.80
2018-07-15T11:50:27.856Z,25.90
2018-07-15T11:52:57.113Z,26.00
2018-07-15T11:55:26.107Z,26.10
2018-07-15T11:57:55.111Z,26.10
2018-07-15T12:00:24.623Z,26.10
2018-07-15T12:02:53.734Z,26.10
2018-07-15T12:05:23.366Z,26.10
2018-07-15T12:07:52.359Z,26.10
2018-07-15T12:10:21.362Z,26.10
2018-07-15T12:12:50.362Z,26.20
2018-07-15T12:15:19.917Z,26.20
2018-07-15T12:17:48.915Z,26.20
2018-07-15T12:20:17.921Z,26.20
2018-07-15T12:22:46.879Z,26.20
2018-07-15T12:25:15.882Z,26.10
2018-07-15T12:27:44.895Z,26.00
2018-07-15T12:30:13.920Z,25.90
2018-07-15T12:32:48.015Z,25.70
2018-07-15T12:35:19.590Z,25.70
2018-07-15T12:37:48.575Z,25.80
2018-07-15T12:40:17.723Z,25.90
2018-07-15T12:42:46.732Z,25.90
2018-07-15T12:45:16.707Z,25.90
2018-07-15T12:47:49.812Z,26.00
2018-07-15T12:50:23.043Z,26.00
2018-07-15T12:52:54.998Z,25.90
2018-07-15T12:55:24.033Z,26.00
2018-07-15T12:57:53.135Z,26.10
2018-07-15T13:00:22.899Z,26.10
2018-07-15T13:02:51.905Z,26.20
2018-07-15T13:05:20.909Z,26.20
2018-07-15T13:07:49.892Z,26.20
2018-07-15T13:10:18.892Z,26.10
2018-07-15T13:12:47.948Z,26.00
2018-07-15T13:15:17.012Z,26.00
2018-07-15T13:17:46.001Z,26.00
2018-07-15T13:20:15.000Z,26.00
2018-07-15T13:22:44.016Z,25.90
2018-07-15T13:25:14.266Z,25.90
2018-07-15T13:27:58.007Z,25.90
2018-07-15T13:30:27.009Z,25.80
2018-07-15T13:35:24.772Z,25.60
2018-07-15T13:37:54.399Z,25.50
2018-07-15T13:40:23.467Z,25.50
2018-07-15T13:42:52.535Z,25.50
2018-07-15T13:45:21.531Z,25.50
2018-07-15T13:47:50.509Z,25.50
2018-07-15T13:50:20.722Z,25.60
2018-07-15T13:52:49.719Z,25.60
2018-07-15T13:55:18.697Z,25.50
2018-07-15T13:57:47.666Z,25.50
2018-07-15T14:00:16.723Z,25.50
2018-07-15T14:02:46.433Z,25.60
2018-07-15T14:05:15.461Z,25.70
2018-07-15T14:07:44.491Z,25.60
2018-07-15T14:10:13.476Z,25.50
2018-07-15T14:12:42.474Z,25.60
2018-07-15T14:15:11.554Z,25.60
2018-07-15T14:17:40.623Z,25.50
2018-07-15T14:20:10.027Z,25.50
2018-07-15T14:22:39.051Z,25.40
2018-07-15T14:25:09.079Z,25.30
2018-07-15T14:27:38.845Z,25.40
2018-07-15T14:30:08.163Z,25.40
2018-07-15T14:32:37.697Z,25.40
2018-07-15T14:35:07.102Z,25.40
2018-07-15T14:37:36.087Z,25.30
2018-07-15T14:40:05.275Z,25.40
2018-07-15T14:42:34.297Z,25.40
2018-07-15T14:45:04.161Z,25.20
2018-07-15T14:47:33.638Z,25.30
2018-07-15T14:50:03.983Z,25.30
2018-07-15T14:52:33.001Z,25.30
2018-07-15T14:57:30.656Z,25.40
2018-07-15T14:59:59.647Z,25.40
2018-07-15T15:02:28.658Z,25.40
2018-07-15T15:04:58.562Z,25.40
2018-07-15T15:07:27.571Z,25.40
2018-07-15T15:09:57.826Z,25.50
2018-07-15T15:12:26.863Z,25.50
2018-07-15T15:14:55.885Z,25.40
2018-07-15T15:17:26.749Z,25.40
2018-07-15T15:19:55.742Z,25.40
2018-07-15T15:22:24.823Z,25.50
2018-07-15T15:24:53.888Z,25.50
2018-07-15T15:27:25.484Z,25.50
2018-07-15T15:29:54.451Z,25.60
2018-07-15T15:32:24.071Z,25.70
2018-07-15T15:34:53.064Z,25.70
2018-07-15T15:37:23.355Z,25.70
2018-07-15T15:39:52.408Z,25.60
2018-07-15T15:42:22.658Z,25.70
2018-07-15T15:44:52.069Z,25.50
2018-07-15T15:47:21.070Z,25.50
2018-07-15T15:49:50.054Z,25.50
2018-07-15T15:52:19.121Z,25.50
2018-07-15T15:54:48.678Z,25.50
2018-07-15T15:57:17.689Z,25.50
2018-07-15T15:59:46.642Z,25.50
2018-07-15T16:02:15.649Z,25.60
2018-07-15T16:04:45.046Z,25.50
2018-07-15T16:07:14.066Z,25.50
2018-07-15T16:09:43.019Z,25.50
2018-07-15T16:12:12.654Z,25.50
2018-07-15T16:14:42.711Z,25.50
2018-07-15T16:17:11.747Z,25.30
2018-07-15T16:19:41.206Z,25.40
2018-07-15T16:24:38.888Z,25.40
2018-07-15T16:27:07.898Z,25.50
2018-07-15T16:29:36.907Z,25.50
2018-07-15T16:32:05.960Z,25.50
2018-07-15T16:34:34.954Z,25.50
2018-07-15T16:37:03.952Z,25.60
2018-07-15T16:39:32.979Z,25.50
2018-07-15T16:42:01.951Z,25.40
2018-07-15T16:44:31.012Z,25.50
2018-07-15T16:47:00.028Z,25.50
2018-07-15T16:49:29.096Z,25.50
2018-07-15T16:51:58.196Z,25.40
2018-07-15T16:54:27.255Z,25.40
2018-07-15T16:56:56.272Z,25.50
2018-07-15T16:59:27.775Z,25.60
2018-07-15T17:01:56.880Z,25.50
2018-07-15T17:04:25.850Z,25.50
2018-07-15T17:06:55.553Z,25.50
2018-07-15T17:09:25.032Z,25.40
2018-07-15T17:11:54.039Z,25.40
2018-07-15T17:14:23.020Z,25.40
2018-07-15T17:16:52.148Z,25.40
2018-07-15T17:19:21.191Z,25.40
2018-07-15T17:21:50.260Z,25.40
2018-07-15T17:24:20.418Z,25.30
2018-07-15T17:26:49.512Z,25.30
2018-07-15T17:29:18.545Z,25.30
2018-07-15T17:31:47.519Z,25.30
2018-07-15T17:34:16.632Z,25.20
2018-07-15T17:36:45.634Z,25.20
2018-07-15T17:39:15.547Z,25.10
2018-07-15T17:41:45.516Z,25.10
2018-07-15T17:44:14.515Z,25.10
2018-07-15T17:46:43.480Z,25.00
2018-07-15T17:49:12.493Z,25.00
2018-07-15T17:51:41.511Z,25.00
2018-07-15T17:54:10.494Z,24.90
2018-07-15T17:56:39.530Z,25.00
2018-07-15T17:59:08.728Z,24.90
2018-07-15T18:01:38.624Z,24.90
2018-07-15T18:04:07.651Z,24.80
2018-07-15T18:06:37.469Z,24.80
2018-07-15T18:09:06.984Z,24.80
2018-07-15T18:11:35.967Z,24.80
2018-07-15T18:14:05.040Z,24.70
2018-07-15T18:16:34.045Z,24.60
2018-07-15T18:19:03.028Z,24.70
2018-07-15T18:21:32.034Z,24.50
2018-07-15T18:24:01.080Z,24.50
2018-07-15T18:26:30.059Z,24.50
2018-07-15T18:28:59.987Z,24.50
2018-07-15T18:31:28.970Z,24.40
2018-07-15T18:33:58.507Z,24.30
2018-07-15T18:36:27.516Z,24.30
2018-07-15T18:38:56.536Z,24.30
2018-07-15T18:41:25.522Z,24.20
2018-07-15T18:43:54.558Z,24.20
2018-07-15T18:46:23.611Z,24.20
2018-07-15T18:48:53.071Z,24.20
2018-07-15T18:51:22.066Z,24.10
2018-07-15T18:53:51.180Z,24.10
2018-07-15T18:56:21.303Z,24.10
2018-07-15T18:58:51.055Z,24.00
2018-07-15T19:01:20.084Z,23.90
2018-07-15T19:03:49.083Z,24.40
2018-07-15T19:06:18.072Z,23.60
2018-07-15T19:08:47.203Z,23.50
2018-07-15T19:11:16.183Z,23.50
2018-07-15T19:13:45.236Z,23.40
2018-07-15T19:16:14.246Z,23.20
2018-07-15T19:18:43.347Z,23.20
2018-07-15T19:21:12.354Z,23.10
2018-07-15T19:23:41.746Z,23.10
2018-07-15T19:26:10.780Z,22.90
2018-07-15T19:28:39.796Z,23.00
2018-07-15T19:31:08.789Z,22.70
2018-07-15T19:33:44.485Z,22.50
2018-07-15T19:36:13.431Z,22.50
2018-07-15T19:38:42.420Z,22.40
2018-07-15T19:41:11.441Z,22.30
2018-07-15T19:43:40.553Z,22.10
2018-07-15T19:46:09.536Z,22.10
2018-07-15T19:48:38.540Z,22.00
2018-07-15T19:51:07.531Z,22.00
2018-07-15T19:53:36.579Z,22.00
2018-07-15T19:56:05.588Z,22.00
2018-07-15T19:58:34.695Z,21.80
2018-07-15T20:01:04.326Z,21.80
2018-07-15T20:03:33.328Z,21.60
2018-07-15T20:06:02.323Z,21.70
2018-07-15T20:08:31.315Z,21.70
2018-07-15T20:11:00.350Z,21.60
2018-07-15T20:13:29.339Z,21.40
2018-07-15T20:15:58.439Z,21.30
2018-07-15T20:18:27.433Z,21.30
2018-07-15T20:20:56.479Z,21.30
2018-07-15T20:23:25.492Z,21.20
2018-07-15T20:28:25.867Z,21.20
2018-07-15T20:30:54.961Z,21.10
2018-07-15T20:33:23.983Z,20.90
2018-07-15T20:35:53.048Z,20.80
2018-07-15T20:38:22.023Z,20.40
2018-07-15T20:40:52.419Z,20.40
2018-07-15T20:43:21.411Z,20.40
2018-07-15T20:45:50.435Z,20.10
2018-07-15T20:48:19.419Z,19.90
2018-07-15T20:50:48.518Z,20.10
2018-07-15T20:53:18.306Z,20.10
2018-07-15T20:55:56.587Z,20.00
2018-07-15T20:58:26.318Z,19.90
2018-07-15T21:01:06.035Z,19.90
2018-07-15T21:03:35.044Z,19.90
2018-07-15T21:06:04.056Z,19.90
2018-07-15T21:08:33.095Z,19.80
2018-07-15T21:11:02.275Z,19.70
2018-07-15T21:13:31.272Z,19.70
2018-07-15T21:16:00.339Z,19.60
2018-07-15T21:18:29.339Z,19.50
2018-07-15T21:20:58.336Z,19.10
2018-07-15T21:23:27.333Z,19.10
2018-07-15T21:25:56.512Z,19.20
2018-07-15T21:28:28.249Z,19.20
2018-07-15T21:30:57.260Z,19.10
2018-07-15T21:33:26.252Z,18.90
2018-07-15T21:35:55.280Z,18.70
2018-07-15T21:38:24.279Z,18.70
2018-07-15T21:40:53.362Z,18.80
2018-07-15T21:43:22.350Z,18.70
2018-07-15T21:45:51.355Z,18.70
2018-07-15T21:48:20.439Z,18.70
2018-07-15T21:50:50.298Z,18.40
2018-07-15T21:53:19.690Z,18.20
2018-07-15T21:55:48.692Z,18.30
2018-07-15T21:58:17.724Z,18.20
2018-07-15T22:00:46.743Z,18.20
2018-07-15T22:03:16.484Z,18.30
2018-07-15T22:05:48.071Z,18.20
2018-07-15T22:08:28.491Z,18.10
2018-07-15T22:10:57.504Z,18.10
2018-07-15T22:13:26.503Z,17.90
2018-07-15T22:18:24.127Z,17.90
2018-07-15T22:20:55.599Z,17.90
2018-07-15T22:23:24.599Z,17.70
2018-07-15T22:25:53.608Z,17.80
2018-07-15T22:28:22.646Z,17.80
2018-07-15T22:30:51.651Z,17.80
2018-07-15T22:33:20.647Z,17.70
2018-07-15T22:35:49.649Z,17.60
2018-07-15T22:38:18.641Z,17.70
2018-07-15T22:40:47.681Z,17.80
2018-07-15T22:43:16.689Z,17.80
2018-07-15T22:45:45.678Z,17.80
2018-07-15T22:48:14.710Z,17.70
2018-07-15T22:50:43.736Z,17.60
2018-07-15T22:53:12.788Z,17.50
2018-07-15T22:55:42.551Z,17.50
2018-07-15T22:58:11.563Z,17.60
2018-07-15T23:00:40.544Z,17.30
2018-07-15T23:03:09.544Z,17.30
2018-07-15T23:05:51.828Z,17.40
2018-07-15T23:08:22.676Z,17.40
2018-07-15T23:10:51.699Z,17.40
2018-07-15T23:13:20.865Z,17.30
2018-07-15T23:15:50.769Z,17.20
2018-07-15T23:18:19.836Z,17.10
2018-07-15T23:20:49.500Z,17.00
2018-07-15T23:23:18.804Z,17.10
2018-07-15T23:25:48.562Z,17.10
2018-07-15T23:28:18.007Z,17.20
2018-07-15T23:30:47.035Z,17.10
2018-07-15T23:33:19.746Z,17.10
2018-07-15T23:35:49.411Z,17.20
2018-07-15T23:38:18.428Z,17.10
2018-07-15T23:40:47.428Z,17.00
2018-07-15T23:43:16.446Z,17.00
2018-07-15T23:45:45.510Z,16.90
2018-07-15T23:48:14.957Z,16.80
2018-07-15T23:50:44.399Z,16.70
2018-07-15T23:53:13.853Z,16.90
2018-07-15T23:55:42.855Z,16.90
2018-07-15T23:58:11.877Z,16.70
